Tiempo atmosférico en la estación meteorológica de Capella, Huesca (600 m.)



Fecha
DESCASC
Temp. máxima en grados centígrados (hora)
DESCASC
Temp. mínima en grados centígrados (hora)
DESCASC
Temp. media en grados centígrados
DESCASC
Racha de viento máxima en m/sg (hora)
DESCASC
Velocidad máxima media en intervalos de 10 minutos(hora)
DESCASC
Precipitaciones diarias en mm
DESCASC
Precipitaciones de 00:00 a 06:00 en mm
DESCASC
Precipitaciones de 06:00 a 12:00 en mm
DESCASC
Precipitaciones de 12:00 a 18:00 en mm
DESCASC
Precipitaciones de 18:00 a 24:00 en mm
DESCASC
09-12-2018 16.3 (16:10) 0.1 (08:30) 8.2 6.11 (17:00) 3.89 (17:30) 0 0 0 0 0
08-12-2018 11.8 (15:30) -1.6 (06:20) 5.1 3.61 (22:50) 2.5 (13:00) 0 0 0 0 0
07-12-2018 5.1 (15:40) 0.7 (23:59) 2.9 4.44 (13:20) 2.22 (13:20) 0 0 0 0 0
06-12-2018 11.5 (16:10) -0.1 (00:00) 5.7 4.72 (13:30) 3.61 (13:30) 0 0 0 0 0
05-12-2018 16.7 (16:10) 2.3 (00:00) 9.5 3.33 (23:10) 2.5 (23:10) 0 0 0 0 0
04-12-2018 16 (14:50) 2.2 (00:00) 9.1 3.89 (16:40) 2.5 (16:40) 0 0 0 0 0
03-12-2018 12.7 (15:10) 1.9 (00:00) 7.3 4.72 (14:40) 3.06 (14:50) 0 0 0 0 0
02-12-2018 13.3 (15:10) 1.8 (00:00) 7.6 5.28 (15:20) 3.61 (15:20) 0 0 0 0 0
01-12-2018 10.5 (15:30) -1 (-00:0) 4.8 5 (12:50) 3.06 (12:50) 0 0 0 0 0
30-11-2018 14.4 (16:10) 2.2 (00:00) 8.3 6.39 (17:00) 3.89 (17:30) 0 0 0 0 0
29-11-2018 13.8 (15:10) -0.4 (00:00) 6.7 3.61 (12:20) 2.78 (12:20) 0 0 0 0 0
28-11-2018 12.6 (16:00) -0.5 (-00:0) 6.1 3.89 (06:00) 2.78 (14:30) 0 0 0 0 0
27-11-2018 12.7 (16:10) -1.3 (-00:0) 5.7 5 (14:20) 3.61 (14:20) 0 0 0 0 0
26-11-2018 11.7 (15:30) 1.4 (23:59) 6.5 7.78 (14:20) 5.56 (14:50) 1.4 0 1.4 0 0
25-11-2018 9.9 (16:10) 0.6 (00:00) 5.2 6.11 (14:40) 3.61 (14:40) 0.8 0 0.8 0 0
24-11-2018 10.3 (15:10) 0 (00:00) 5.2 4.72 (14:50) 3.33 (15:20) 0 0 0 0 0
23-11-2018 8 (14:40) 4.3 (00:00) 6.2 4.44 (18:20) 2.5 (16:00) 4 0 3 1 0
22-11-2018 11.1 (14:40) 2.4 (00:00) 6.8 3.06 (13:20) 2.5 (13:20) 0 0 0 0 0
21-11-2018 11.9 (14:20) 4.8 (00:00) 8.3 4.17 (16:10) 3.06 (16:00) 0 0 0 0 0
20-11-2018 7 (15:10) 3.6 (00:00) 5.3 6.94 (16:40) 3.89 (16:20) 10.4 0 2 8.2 0.2
19-11-2018 12.3 (14:00) 4.9 (00:00) 8.6 7.22 (14:40) 4.72 (14:20) 8.6 0 0 0 8.6
18-11-2018 9.6 (16:10) 6.6 (00:00) 8.1 5.28 (00:50) 3.33 (02:50) 8.8 3.6 3.8 1.4 0
17-11-2018 13.8 (13:30) 9 (00:00) 11.4 5.28 (13:50) 3.33 (14:00) 2 0 0 0 2
16-11-2018 17.5 (15:30) 5.9 (00:00) 11.7 4.72 (15:40) 2.78 (16:00) 0 0 0 0 0
15-11-2018 14.7 (13:40) 8.3 (00:00) 11.5 6.11 (15:10) 3.61 (12:50) 0 0 0 0 0
14-11-2018 18.1 (15:50) 7.9 (00:00) 13 5 (16:20) 2.5 (14:00) 0 0 0 0 0

Gráficas

Temp. máximas Temp. mínimas Temp. medias Precipitaciones Rachas de viento máximas Velocidades máximas media en intervalos de 10 minutos

Datos horarios

Fecha y hora oficial Temperatura (ºC) Velocidad del viento (km/h) Dirección del viento Racha (km/h) Dirección de racha Precipitación (mm) Presión (hPa) Tendencia (hPa) Humedad (%)
2018-12-13 23:00:00 5 3 Nordeste 6 Este 0 -- -- 100
2018-12-13 22:00:00 5 4 Este 5 Este 0 -- -- 100
2018-12-13 21:00:00 5.2 4 Sudoeste 9 Sur 0 -- -- 100
2018-12-13 20:00:00 5.3 3 Sur 9 Oeste 0 -- -- 100
2018-12-13 19:00:00 5.5 3 Sudeste 8 Este 0 -- -- 99
2018-12-13 18:00:00 5.8 2 Sur 8 Oeste 0 -- -- 99
2018-12-13 17:00:00 6 5 Oeste 8 Sudoeste 0.6 -- -- 99
2018-12-13 16:00:00 6.2 5 Sudoeste 9 Sudoeste 0.4 -- -- 99
2018-12-13 15:00:00 6.3 5 Sudoeste 8 Sudoeste 0 -- -- 100
2018-12-13 14:00:00 6.2 6 Sudoeste 10 Oeste 0 -- -- 100
2018-12-13 13:00:00 6.2 0 Calma 5 Nordeste 0 -- -- 100
2018-12-13 12:00:00 5.4 2 Norte 4 Nordeste 0.4 -- -- 100
2018-12-13 11:00:00 4.6 3 Este 4 Este 1.4 -- -- 100
2018-12-13 10:00:00 4.5 3 Noroeste 5 Sudeste 0.2 -- -- 100
2018-12-13 09:00:00 4.2 3 Sudoeste 4 Oeste 0 -- -- 100
2018-12-13 08:00:00 3.7 2 Sudeste 5 Este 0 -- -- 100
2018-12-13 07:00:00 3.4 4 Este 9 Sur 0 -- -- 100
2018-12-13 06:00:00 3.3 0 Calma 6 Sudoeste 0 -- -- 100
2018-12-13 05:00:00 3.7 6 Sur 8 Sur 0 -- -- 99
2018-12-13 04:00:00 4.3 2 Este 6 Nordeste 0 -- -- 98
2018-12-13 03:00:00 4.5 2 Sudeste 6 Este 0 -- -- 98
2018-12-13 02:00:00 4.5 2 Norte 13 Sudoeste 0 -- -- 97
2018-12-13 01:00:00 4.5 4 Oeste 9 Oeste 0 -- -- 97
2018-12-13 00:00:00 4.8 4 Sudeste 9 Este 0 -- -- 98
2018-12-12 23:00:00 3.4 2 Sudeste 6 Sudeste 0 -- -- 97
2018-12-12 22:00:00 3.5 2 Sudeste 6 Sudeste 0 -- -- 94
2018-12-12 21:00:00 4.5 0 Calma 5 Sur 0 -- -- 93
2018-12-12 20:00:00 5.2 2 Sudoeste 5 Sur 0 -- -- 92
2018-12-12 19:00:00 5.8 3 Sudeste 6 Sur 0 -- -- 90
2018-12-12 18:00:00 6.3 2 Sur 6 Sur 0 -- -- 86
2018-12-12 17:00:00 7.1 4 Sudoeste 7 Sudoeste 0 -- -- 82
2018-12-12 16:00:00 7.9 8 Oeste 15 Oeste 0 -- -- 79
2018-12-12 15:00:00 9.6 8 Sudoeste 14 Sudoeste 0 -- -- 74
2018-12-12 14:00:00 9.5 6 Oeste 14 Oeste 0 -- -- 71
2018-12-12 13:00:00 8.2 8 Sudoeste 11 Oeste 0 -- -- 71
2018-12-12 12:00:00 6.6 6 Oeste 8 Oeste 0 -- -- 79
2018-12-12 11:00:00 4.1 2 Nordeste 4 Nordeste 0 -- -- 85
2018-12-12 10:00:00 1.3 4 Este 9 Este 0 -- -- 98
2018-12-12 09:00:00 -1.5 3 Este 9 Este 0 -- -- 99
2018-12-12 08:00:00 -1.2 6 Este 9 Este 0 -- -- 99
2018-12-12 07:00:00 -1.3 0 Calma 8 Este 0 -- -- 99
2018-12-12 06:00:00 -0.9 3 Este 10 Este 0 -- -- 99
2018-12-12 05:00:00 -0.6 0 Calma 9 Sudeste 0 -- -- 98
2018-12-12 04:00:00 0.5 2 Norte 13 Sudoeste 0 -- -- 96
2018-12-12 03:00:00 0.5 11 Sudoeste 14 Oeste 0 -- -- 98
2018-12-12 02:00:00 0.3 4 Este 8 Este 0 -- -- 97
2018-12-12 01:00:00 0.6 4 Sudeste 6 Sudeste 0 -- -- 97
2018-12-12 00:00:00 0.4 0 Calma 8 Sudeste 0 -- -- 96
2018-12-11 23:00:00 1.1 2 Este 9 Nordeste 0 -- -- 96
2018-12-11 22:00:00 1.3 4 Este 7 Este 0 -- -- 96
2018-12-11 21:00:00 1.9 5 Este 8 Este 0 -- -- 95
2018-12-11 20:00:00 2.7 5 Este 9 Nordeste 0 -- -- 94
2018-12-11 19:00:00 3.1 0 Calma 7 Sur 0 -- -- 92
2018-12-11 18:00:00 4.6 2 Sudeste 7 Sudoeste 0 -- -- 86
2018-12-11 17:00:00 8.2 5 Sudoeste 8 Sudoeste 0 -- -- 73
2018-12-11 16:00:00 9.6 7 Oeste 12 Oeste 0 -- -- 69
2018-12-11 15:00:00 9.8 8 Oeste 12 Oeste 0 -- -- 65
2018-12-11 14:00:00 8.7 4 Oeste 8 Sudoeste 0 -- -- 63
2018-12-11 13:00:00 7.2 4 Oeste 6 Noroeste 0 -- -- 67
2018-12-11 12:00:00 5.2 2 Noroeste 6 Noroeste 0 -- -- 79
2018-12-11 11:00:00 2.8 2 Oeste 5 Oeste 0 -- -- 86
2018-12-11 10:00:00 0.7 0 Calma 3 Este 0 -- -- 92
2018-12-11 09:00:00 -1.8 0 Calma 6 Nordeste 0 -- -- 94
2018-12-11 08:00:00 -1.7 4 Este 9 Este 0 -- -- 96
2018-12-11 07:00:00 -1.9 3 Este 7 Este 0 -- -- 96
2018-12-11 06:00:00 -1.7 0 Calma 6 Este 0 -- -- 95
2018-12-11 05:00:00 -1.2 5 Sudeste 7 Sudeste 0 -- -- 97
2018-12-11 04:00:00 -1.1 4 Este 6 Sudeste 0 -- -- 96
2018-12-11 03:00:00 -1 2 Este 8 Nordeste 0 -- -- 93
2018-12-11 02:00:00 -0.3 2 Nordeste 12 Nordeste 0 -- -- 93
2018-12-11 01:00:00 -0.3 4 Nordeste 12 Este 0 -- -- 95
2018-12-11 00:00:00 0.3 6 Este 9 Este 0 -- -- 95
2018-12-10 23:00:00 1.2 7 Este 10 Nordeste 0 -- -- 93
2018-12-10 22:00:00 1.8 3 Este 9 Este 0 -- -- 92
2018-12-10 21:00:00 2.3 5 Este 10 Nordeste 0 -- -- 93
2018-12-10 20:00:00 2.5 4 Nordeste 8 Nordeste 0 -- -- 91
2018-12-10 19:00:00 3.6 4 Este 8 Nordeste 0 -- -- 88
2018-12-10 18:00:00 5.2 2 Sur 6 Sur 0 -- -- 83
2018-12-10 17:00:00 8.4 0 Calma 3 Sudoeste 0 -- -- 72
2018-12-10 16:00:00 8.8 3 Sur 10 Sudoeste 0 -- -- 68
2018-12-10 15:00:00 9.6 6 Sudoeste 10 Sudoeste 0 -- -- 64
2018-12-10 14:00:00 9.1 7 Sudoeste 14 Sudoeste 0 -- -- 62
2018-12-10 13:00:00 8.8 10 Sudoeste 14 Sudoeste 0 -- -- 67
2018-12-10 12:00:00 7.2 0 Calma 5 Oeste 0 -- -- 61
2018-12-10 11:00:00 4.4 0 Calma 4 Este 0 -- -- 72
2018-12-10 10:00:00 2.2 2 Este 7 Nordeste 0 -- -- 82
2018-12-10 09:00:00 -0.9 4 Este 6 Este 0 -- -- 90
2018-12-10 08:00:00 -0.6 3 Este 7 Este 0 -- -- 92
2018-12-10 07:00:00 -0.4 2 Sur 12 Este 0 -- -- 87
2018-12-10 06:00:00 -0.5 3 Este 7 Nordeste 0 -- -- 90
2018-12-10 05:00:00 0.7 5 Este 8 Este 0 -- -- 83
2018-12-10 04:00:00 1.5 5 Nordeste 11 Este 0 -- -- 80
2018-12-10 03:00:00 1.3 6 Este 11 Nordeste 0 -- -- 86
2018-12-10 02:00:00 1.9 5 Este 13 Este 0 -- -- 84
2018-12-10 01:00:00 2.3 6 Este 15 Nordeste 0 -- -- 84
2018-12-10 00:00:00 3 7 Este 13 Este 0 -- -- 83
2018-12-09 23:00:00 3.9 4 Este 13 Este 0 -- -- 81
2018-12-09 22:00:00 4.7 5 Sudeste 13 Sudeste 0 -- -- 82
2018-12-09 21:00:00 5.2 6 Nordeste 12 Nordeste 0 -- -- 80
2018-12-09 20:00:00 5.8 3 Sudeste 10 Nordeste 0 -- -- 79
2018-12-09 19:00:00 8.4 4 Sur 12 Sudoeste 0 -- -- 70
2018-12-09 18:00:00 12.2 2 Noroeste 22 Sudoeste 0 -- -- 55
2018-12-09 17:00:00 14.2 14 Sur 22 Sur 0 -- -- 49
2018-12-09 16:00:00 16.1 4 Este 8 Este 0 -- -- 53
2018-12-09 15:00:00 15.1 4 Nordeste 8 Norte 0 -- -- 58
2018-12-09 14:00:00 13.2 4 Nordeste 9 Nordeste 0 -- -- 63
2018-12-09 13:00:00 11.1 5 Oeste 9 Oeste 0 -- -- 69
2018-12-09 12:00:00 8.5 3 Norte 10 Sudoeste 0 -- -- 80
2018-12-09 11:00:00 6.7 2 Sur 6 Sudeste 0 -- -- 84
2018-12-09 10:00:00 3.2 2 Oeste 11 Este 0 -- -- 92
2018-12-09 09:00:00 1 5 Sudeste 9 Sudeste 0 -- -- 99
2018-12-09 08:00:00 0.6 5 Este 12 Este 0 -- -- 98
2018-12-09 07:00:00 0.9 5 Este 10 Este 0 -- -- 99
2018-12-09 06:00:00 1 5 Nordeste 12 Nordeste 0 -- -- 97
2018-12-09 05:00:00 1.2 7 Este 13 Este 0 -- -- 97
2018-12-09 04:00:00 1 3 Este 10 Nordeste 0 -- -- 98
2018-12-09 03:00:00 1.4 0 Calma 10 Este 0 -- -- 95
2018-12-09 02:00:00 1.5 6 Este 11 Este 0 -- -- 96
2018-12-09 01:00:00 2 4 Sudeste 9 Este 0 -- -- 95
2018-12-09 00:00:00 2.1 4 Sudeste 8 Nordeste 0 -- -- 96
2018-12-08 23:00:00 2.6 0 Calma 13 Nordeste 0 -- -- 93
2018-12-08 22:00:00 3.3 6 Este 13 Nordeste 0 -- -- 93
2018-12-08 21:00:00 3.7 6 Este 11 Nordeste 0 -- -- 92
2018-12-08 20:00:00 3.9 6 Nordeste 9 Nordeste 0 -- -- 91
2018-12-08 19:00:00 4.5 3 Nordeste 6 Este 0 -- -- 86
2018-12-08 18:00:00 7.2 5 Sudeste 9 Sur 0 -- -- 77
2018-12-08 17:00:00 10.3 5 Sur 8 Sudoeste 0 -- -- 67
2018-12-08 16:00:00 11.5 5 Sudoeste 11 Sudoeste 0 -- -- 63
2018-12-08 15:00:00 11.1 8 Sudoeste 13 Sudoeste 0 -- -- 64
2018-12-08 14:00:00 9.8 7 Sudoeste 13 Sudoeste 0 -- -- 74
2018-12-08 13:00:00 7.9 9 Oeste 12 Sudoeste 0 -- -- 87
2018-12-08 12:00:00 6.6 3 Noroeste 6 Oeste 0 -- -- 95
2018-12-08 11:00:00 4.7 3 Sudeste 5 Nordeste 0 -- -- 100
2018-12-08 10:00:00 1.6 3 Este 8 Este 0 -- -- 100
2018-12-08 09:00:00 -1.3 3 Nordeste 9 Sudeste 0 -- -- 100
2018-12-08 08:00:00 -0.9 2 Sur 9 Este 0 -- -- 100
2018-12-08 07:00:00 -0.9 4 Este 10 Este 0 -- -- 100
2018-12-08 06:00:00 -1 0 Calma 5 Oeste 0 -- -- 100
2018-12-08 05:00:00 -1 0 Calma 6 Sudeste 0 -- -- 100
2018-12-08 04:00:00 -1 2 Nordeste 6 Este 0 -- -- 100
2018-12-08 03:00:00 -0.7 3 Nordeste 7 Sudeste 0 -- -- 100
2018-12-08 02:00:00 -0.4 2 Nordeste 6 Oeste 0 -- -- 100
2018-12-08 01:00:00 0.7 4 Sudeste 7 Sudeste 0 -- -- 100
2018-12-08 00:00:00 0.7 3 Nordeste 9 Sudeste 0 -- -- 100
2018-12-07 23:00:00 1.6 2 Oeste 8 Sudeste 0 -- -- 100
2018-12-07 22:00:00 2.9 4 Nordeste 8 Nordeste 0 -- -- 100
2018-12-07 21:00:00 3.2 3 Sudoeste 8 Este 0 -- -- 100
2018-12-07 20:00:00 4.1 4 Nordeste 8 Nordeste 0 -- -- 100
2018-12-07 19:00:00 4.3 5 Nordeste 10 Nordeste 0 -- -- 100
2018-12-07 18:00:00 4.9 3 Este 14 Este 0 -- -- 100
2018-12-07 17:00:00 4.8 4 Este 8 Este 0 -- -- 100
2018-12-07 16:00:00 4.9 6 Nordeste 9 Nordeste 0 -- -- 100
2018-12-07 15:00:00 4.8 2 Sur 8 Oeste 0 -- -- 100
2018-12-07 14:00:00 4 3 Sudoeste 16 Oeste 0 -- -- 100
2018-12-07 13:00:00 3.2 3 Sudoeste 10 Nordeste 0 -- -- 100
2018-12-07 12:00:00 3 3 Sudeste 6 Sudoeste 0 -- -- 100
2018-12-07 11:00:00 2.4 3 Sur 6 Sudoeste 0 -- -- 100
2018-12-07 10:00:00 1.8 5 Nordeste 8 Nordeste 0 -- -- 100
2018-12-07 09:00:00 1.8 3 Norte 5 Norte 0 -- -- 100
2018-12-07 08:00:00 1.8 0 Calma 8 Nordeste 0 -- -- 100
2018-12-07 07:00:00 2.2 0 Calma 5 Nordeste 0 -- -- 100
2018-12-07 06:00:00 2 3 Nordeste 4 Nordeste 0 -- -- 100
2018-12-07 05:00:00 2.3 0 Calma 5 Nordeste 0 -- -- 100
2018-12-07 04:00:00 2.5 3 Nordeste 9 Norte 0 -- -- 100
2018-12-07 03:00:00 2.8 2 Sudeste 6 Sur 0 -- -- 100
2018-12-07 02:00:00 2.2 0 Calma 5 Sudoeste 0 -- -- 100
2018-12-07 01:00:00 2.8 0 Calma 5 Sur 0 -- -- 100
2018-12-07 00:00:00 2.8 3 Este 6 Sudeste 0 -- -- 100
2018-12-06 23:00:00 3.3 2 Nordeste 7 Sudeste 0 -- -- 98
2018-12-06 22:00:00 4.3 2 Este 11 Este 0 -- -- 97
2018-12-06 21:00:00 4.9 4 Nordeste 8 Norte 0 -- -- 97
2018-12-06 20:00:00 5.3 5 Este 7 Este 0 -- -- 97
2018-12-06 19:00:00 5.9 3 Sudeste 6 Este 0 -- -- 95
2018-12-06 18:00:00 6.9 0 Calma 4 Sur 0 -- -- 91
2018-12-06 17:00:00 10.8 0 Calma 5 Sur 0 -- -- 80
2018-12-06 16:00:00 11.3 2 Noroeste 6 Oeste 0 -- -- 78
2018-12-06 15:00:00 9.6 3 Oeste 12 Sudoeste 0 -- -- 88
2018-12-06 14:00:00 7.7 9 Sudoeste 17 Sudoeste 0 -- -- 95
2018-12-06 13:00:00 6.7 11 Sudoeste 14 Sudoeste 0 -- -- 96
2018-12-06 12:00:00 5.9 8 Oeste 11 Oeste 0 -- -- 100
2018-12-06 11:00:00 3.4 4 Oeste 7 Oeste 0 -- -- 100
2018-12-06 10:00:00 1.3 2 Oeste 6 Oeste 0 -- -- 100
2018-12-06 09:00:00 -0.1 5 Oeste 9 Oeste 0 -- -- 100
2018-12-06 08:00:00 0 0 Calma 4 Nordeste 0 -- -- 100
2018-12-06 07:00:00 0.6 0 Calma 5 Sudeste 0 -- -- 100
2018-12-06 06:00:00 0.4 3 Este 5 Este 0 -- -- 100
2018-12-06 05:00:00 0.9 3 Sudeste 8 Sudeste 0 -- -- 99
2018-12-06 04:00:00 1.7 0 Calma 8 Oeste 0 -- -- 98
2018-12-06 03:00:00 3.2 0 Calma 7 Sudeste 0 -- -- 98
2018-12-06 02:00:00 3.1 3 Sudeste 6 Este 0 -- -- 97
2018-12-06 01:00:00 4.4 4 Sudeste 9 Este 0 -- -- 96
2018-12-06 00:00:00 5.3 6 Sudeste 12 Nordeste 0 -- -- 98
2018-12-05 23:00:00 5.6 6 Este 9 Este 0 -- -- 97
2018-12-05 22:00:00 6.5 3 Este 9 Este 0 -- -- 95
2018-12-05 21:00:00 7 0 Calma 10 Sudeste 0 -- -- 92
2018-12-05 20:00:00 7.8 6 Este 9 Sudeste 0 -- -- 93
2018-12-05 19:00:00 9.2 6 Sudeste 9 Este 0 -- -- 89
2018-12-05 18:00:00 10.6 3 Sur 8 Oeste 0 -- -- 82
2018-12-05 17:00:00 14.9 5 Oeste 8 Oeste 0 -- -- 67
2018-12-05 16:00:00 16.6 6 Sudoeste 10 Sudoeste 0 -- -- 60
2018-12-05 15:00:00 16.2 7 Oeste 9 Oeste 0 -- -- 55
2018-12-05 14:00:00 15.4 4 Oeste 7 Noroeste 0 -- -- 59
2018-12-05 13:00:00 13.6 5 Oeste 8 Oeste 0 -- -- 65
2018-12-05 12:00:00 11.7 0 Calma 4 Noroeste 0 -- -- 77
2018-12-05 11:00:00 8.1 3 Oeste 6 Oeste 0 -- -- 89
2018-12-05 10:00:00 5.3 0 Calma 4 Nordeste 0 -- -- 99
2018-12-05 09:00:00 2.9 3 Este 5 Este 0 -- -- 100
2018-12-05 08:00:00 2.6 0 Calma 5 Nordeste 0 -- -- 99
2018-12-05 07:00:00 3 4 Este 7 Nordeste 0 -- -- 98
2018-12-05 06:00:00 3.1 3 Este 6 Este 0 -- -- 98
2018-12-05 05:00:00 3.2 0 Calma 4 Nordeste 0 -- -- 97
2018-12-05 04:00:00 4.5 5 Este 10 Nordeste 0 -- -- 98
2018-12-05 03:00:00 4.3 2 Nordeste 6 Este 0 -- -- 97
2018-12-05 02:00:00 3.9 2 Este 7 Este 0 -- -- 97
2018-12-05 01:00:00 4.9 6 Nordeste 8 Nordeste 0 -- -- 96
2018-12-05 00:00:00 5.4 5 Este 9 Este 0 -- -- 96
2018-12-04 23:00:00 5.1 3 Nordeste 8 Nordeste 0 -- -- 94
2018-12-04 22:00:00 6.3 4 Este 10 Este 0 -- -- 94
2018-12-04 21:00:00 6.4 4 Nordeste 8 Nordeste 0 -- -- 93
2018-12-04 20:00:00 7.2 0 Calma 6 Sur 0 -- -- 92
2018-12-04 19:00:00 8.6 4 Nordeste 9 Nordeste 0 -- -- 89
2018-12-04 18:00:00 10.4 5 Este 8 Sudoeste 0 -- -- 82
2018-12-04 17:00:00 12.6 6 Sudoeste 14 Sudoeste 0 -- -- 75
2018-12-04 16:00:00 14.9 6 Sudoeste 9 Oeste 0 -- -- 66
2018-12-04 15:00:00 15.9 6 Sudoeste 12 Sudoeste 0 -- -- 58
2018-12-04 14:00:00 14.9 7 Oeste 9 Sudoeste 0 -- -- 66
2018-12-04 13:00:00 13.2 5 Sudoeste 9 Oeste 0 -- -- 71
2018-12-04 12:00:00 10.4 8 Sudoeste 10 Oeste 0 -- -- 84
2018-12-04 11:00:00 7.6 4 Oeste 7 Oeste 0 -- -- 93
2018-12-04 10:00:00 5.2 2 Este 4 Nordeste 0 -- -- 100
2018-12-04 09:00:00 2.8 0 Calma 9 Este 0 -- -- 100
2018-12-04 08:00:00 2.8 4 Este 9 Este 0 -- -- 100
2018-12-04 07:00:00 2.2 0 Calma 8 Sudeste 0 -- -- 99
2018-12-04 06:00:00 2.7 4 Este 8 Este 0 -- -- 100
2018-12-04 05:00:00 3.2 5 Este 9 Sudeste 0 -- -- 100
2018-12-04 04:00:00 3.5 4 Sudeste 9 Este 0 -- -- 98
2018-12-04 03:00:00 4.2 4 Este 8 Este 0 -- -- 99
2018-12-04 02:00:00 4.1 5 Este 12 Nordeste 0 -- -- 99
2018-12-04 01:00:00 4.6 6 Este 9 Este 0 -- -- 99
2018-12-04 00:00:00 4.5 3 Nordeste 8 Este 0 -- -- 98
2018-12-03 23:00:00 5.4 6 Este 9 Este 0 -- -- 98
2018-12-03 22:00:00 5.8 3 Este 11 Este 0 -- -- 97
2018-12-03 21:00:00 6 5 Nordeste 9 Este 0 -- -- 96
2018-12-03 20:00:00 6.6 3 Este 9 Este 0 -- -- 93
2018-12-03 19:00:00 8 0 Calma 9 Este 0 -- -- 92
2018-12-03 18:00:00 9.5 4 Sudeste 8 Este 0 -- -- 87
2018-12-03 17:00:00 11.4 0 Calma 11 Oeste 0 -- -- 80
2018-12-03 16:00:00 12.3 9 Oeste 14 Oeste 0 -- -- 76
2018-12-03 15:00:00 12.6 11 Sudoeste 17 Sudoeste 0 -- -- 74
2018-12-03 14:00:00 12.2 4 Oeste 7 Este 0 -- -- 72
2018-12-03 13:00:00 11.2 2 Nordeste 9 Sudoeste 0 -- -- 77
2018-12-03 12:00:00 8.9 6 Oeste 10 Oeste 0 -- -- 86
2018-12-03 11:00:00 6.8 4 Oeste 6 Oeste 0 -- -- 96
2018-12-03 10:00:00 5 3 Sudeste 9 Sudeste 0 -- -- 100
2018-12-03 09:00:00 2.1 0 Calma 6 Este 0 -- -- 100
2018-12-03 08:00:00 2.5 4 Este 8 Este 0 -- -- 100
2018-12-03 07:00:00 2.2 0 Calma 8 Sur 0 -- -- 99
2018-12-03 06:00:00 2.6 3 Este 9 Este 0 -- -- 98
2018-12-03 05:00:00 2.8 4 Sudeste 7 Este 0 -- -- 99
2018-12-03 04:00:00 3 4 Este 8 Este 0 -- -- 98
2018-12-03 03:00:00 3.2 3 Este 8 Este 0 -- -- 99
2018-12-03 02:00:00 3.4 4 Este 9 Sudeste 0 -- -- 98
2018-12-03 01:00:00 4 5 Nordeste 11 Nordeste 0 -- -- 97
2018-12-03 00:00:00 3.9 3 Este 10 Nordeste 0 -- -- 96
2018-12-02 23:00:00 4.4 4 Este 10 Nordeste 0 -- -- 96
2018-12-02 22:00:00 5.3 5 Este 11 Nordeste 0 -- -- 95
2018-12-02 21:00:00 5.7 0 Calma 11 Nordeste 0 -- -- 92
2018-12-02 20:00:00 6.3 8 Este 12 Este 0 -- -- 93
2018-12-02 19:00:00 7.2 0 Calma 5 Sur 0 -- -- 88
2018-12-02 18:00:00 9.6 3 Sudoeste 9 Sudoeste 0 -- -- 82
2018-12-02 17:00:00 11.2 5 Sudoeste 10 Oeste 0 -- -- 76
2018-12-02 16:00:00 12.2 7 Oeste 19 Oeste 0 -- -- 70
2018-12-02 15:00:00 13.1 7 Oeste 16 Oeste 0 -- -- 66
2018-12-02 14:00:00 12.2 3 Noroeste 9 Oeste 0 -- -- 67
2018-12-02 13:00:00 11.3 5 Sudoeste 14 Sudoeste 0 -- -- 71
2018-12-02 12:00:00 10 5 Oeste 9 Oeste 0 -- -- 71
2018-12-02 11:00:00 7.9 5 Norte 10 Oeste 0 -- -- 79
2018-12-02 10:00:00 5.5 3 Sudeste 8 Este 0 -- -- 89
2018-12-02 09:00:00 2.4 8 Este 10 Este 0 -- -- 99
2018-12-02 08:00:00 2.3 4 Sur 9 Sudeste 0 -- -- 98
2018-12-02 07:00:00 2.4 2 Este 10 Este 0 -- -- 96
2018-12-02 06:00:00 2.9 0 Calma 6 Nordeste 0 -- -- 95
2018-12-02 05:00:00 4 4 Nordeste 8 Oeste 0 -- -- 92
2018-12-02 04:00:00 4.4 0 Calma 6 Sudoeste 0 -- -- 93
2018-12-02 03:00:00 4 3 Nordeste 8 Este 0 -- -- 92
2018-12-02 02:00:00 4 2 Sudeste 6 Este 0 -- -- 91
2018-12-02 01:00:00 4.1 2 Sudeste 8 Este 0 -- -- 95
2018-12-02 00:00:00 3.5 3 Norte 9 Este 0 -- -- 94
2018-12-01 23:00:00 3.8 5 Este 9 Este 0 -- -- 91
2018-12-01 22:00:00 4 4 Este 9 Este 0 -- -- 93
2018-12-01 21:00:00 4.3 8 Este 10 Este 0 -- -- 94
2018-12-01 20:00:00 4.7 6 Nordeste 12 Este 0 -- -- 90
2018-12-01 19:00:00 5.4 6 Nordeste 9 Nordeste 0 -- -- 88
2018-12-01 18:00:00 7 5 Sudeste 8 Oeste 0 -- -- 82
2018-12-01 17:00:00 9.5 6 Oeste 10 Oeste 0 -- -- 73
2018-12-01 16:00:00 10.1 7 Oeste 14 Sudoeste 0 -- -- 70
2018-12-01 15:00:00 9.9 8 Oeste 15 Oeste 0 -- -- 67
2018-12-01 14:00:00 8.7 9 Sudoeste 13 Oeste 0 -- -- 71
2018-12-01 13:00:00 8.1 11 Sudoeste 18 Sudoeste 0 -- -- 72
2018-12-01 12:00:00 6.1 5 Oeste 8 Oeste 0 -- -- 82
2018-12-01 11:00:00 3.7 5 Sudeste 6 Sudeste 0 -- -- 86
2018-12-01 10:00:00 1 2 Norte 6 Nordeste 0 -- -- 97
2018-12-01 09:00:00 -0.2 4 Nordeste 7 Sudoeste 0 -- -- 95
2018-12-01 08:00:00 -0.3 4 Nordeste 10 Nordeste 0 -- -- 96
2018-12-01 07:00:00 -0.5 6 Este 9 Este 0 -- -- 97
2018-12-01 06:00:00 -0.4 0 Calma 6 Este 0 -- -- 94
2018-12-01 05:00:00 0 3 Nordeste 9 Este 0 -- -- 94
2018-12-01 04:00:00 0.4 2 Este 10 Nordeste 0 -- -- 91
2018-12-01 03:00:00 1 3 Nordeste 11 Este 0 -- -- 90
2018-12-01 02:00:00 1 5 Este 9 Este 0 -- -- 91
2018-12-01 01:00:00 1.3 5 Nordeste 9 Este 0 -- -- 90
2018-12-01 00:00:00 2.2 5 Este 9 Este 0 -- -- 87
2018-11-30 23:00:00 2.3 5 Este 9 Nordeste 0 -- -- 89
2018-11-30 22:00:00 3.4 4 Este 8 Nordeste 0 -- -- 84
2018-11-30 21:00:00 4.5 10 Nordeste 14 Nordeste 0 -- -- 81
2018-11-30 20:00:00 6.7 4 Nordeste 17 Sudoeste 0 -- -- 73
2018-11-30 19:00:00 9.4 12 Sudoeste 22 Sur 0 -- -- 59
2018-11-30 18:00:00 10.4 12 Sudoeste 23 Sudoeste 0 -- -- 58
2018-11-30 17:00:00 12.4 11 Sudoeste 23 Sudoeste 0 -- -- 54
2018-11-30 16:00:00 14.3 8 Sur 16 Sudoeste 0 -- -- 53
2018-11-30 15:00:00 13.6 8 Sudoeste 12 Sudoeste 0 -- -- 56
2018-11-30 14:00:00 12.2 6 Sudoeste 16 Oeste 0 -- -- 62
2018-11-30 13:00:00 11 9 Sudoeste 17 Sudoeste 0 -- -- 65
2018-11-30 12:00:00 10.1 10 Sudoeste 15 Sudoeste 0 -- -- 76
2018-11-30 11:00:00 8 8 Sur 14 Sur 0 -- -- 83
2018-11-30 10:00:00 5.5 5 Nordeste 10 Nordeste 0 -- -- 94
2018-11-30 09:00:00 4.3 5 Sudoeste 9 Sudoeste 0 -- -- 95
2018-11-30 08:00:00 4.4 0 Calma 8 Sudeste 0 -- -- 94
2018-11-30 07:00:00 5 2 Sur 6 Sudeste 0 -- -- 92
2018-11-30 06:00:00 4.4 4 Este 6 Este 0 -- -- 93
2018-11-30 05:00:00 4.8 3 Oeste 8 Sudoeste 0 -- -- 89
2018-11-30 04:00:00 5 3 Oeste 10 Este 0 -- -- 89
2018-11-30 03:00:00 4.7 8 Oeste 13 Oeste 0 -- -- 89
2018-11-30 02:00:00 4.3 4 Nordeste 10 Norte 0 -- -- 91
2018-11-30 01:00:00 4.1 0 Calma 6 Sudoeste 0 -- -- 91
2018-11-30 00:00:00 4.5 2 Sur 6 Sudeste 0 -- -- 90
2018-11-29 23:00:00 5.1 4 Sur 13 Sur 0 -- -- 86
2018-11-29 22:00:00 4.7 5 Nordeste 9 Nordeste 0 -- -- 87
2018-11-29 21:00:00 5.5 4 Este 8 Este 0 -- -- 82
2018-11-29 20:00:00 5.3 0 Calma 9 Nordeste 0 -- -- 83
2018-11-29 19:00:00 5.8 2 Nordeste 10 Este 0 -- -- 82
2018-11-29 18:00:00 7.3 0 Calma 8 Sur 0 -- -- 78
2018-11-29 17:00:00 12 3 Este 10 Sudoeste 0 -- -- 62
2018-11-29 16:00:00 13.1 8 Sudoeste 11 Sudoeste 0 -- -- 55
2018-11-29 15:00:00 13.7 3 Sudoeste 6 Noroeste 0 -- -- 49
2018-11-29 14:00:00 12.4 4 Noroeste 9 Sudoeste 0 -- -- 56
2018-11-29 13:00:00 9.9 5 Oeste 13 Sudoeste 0 -- -- 65
2018-11-29 12:00:00 7.9 7 Oeste 9 Oeste 0 -- -- 78
2018-11-29 11:00:00 4.6 0 Calma 6 Sudoeste 0 -- -- 90
2018-11-29 10:00:00 1.7 4 Oeste 11 Este 0 -- -- 94
2018-11-29 09:00:00 -0.2 5 Este 10 Este 0 -- -- 97
2018-11-29 08:00:00 -0.4 4 Nordeste 7 Nordeste 0 -- -- 97
2018-11-29 07:00:00 -0.3 3 Este 6 Sur 0 -- -- 96
2018-11-29 06:00:00 0.1 2 Norte 8 Nordeste 0 -- -- 96
2018-11-29 05:00:00 1 5 Este 8 Este 0 -- -- 95
2018-11-29 04:00:00 1.3 4 Sudeste 6 Sudeste 0 -- -- 94
2018-11-29 03:00:00 1.6 4 Este 7 Sudeste 0 -- -- 94
2018-11-29 02:00:00 1.9 4 Este 10 Nordeste 0 -- -- 94
2018-11-29 01:00:00 1.8 5 Este 10 Nordeste 0 -- -- 95
2018-11-29 00:00:00 2.7 6 Este 10 Este 0 -- -- 92
2018-11-28 23:00:00 3.3 5 Este 11 Este 0 -- -- 91
2018-11-28 22:00:00 3.5 6 Este 11 Este 0 -- -- 91
2018-11-28 21:00:00 3.8 6 Nordeste 12 Nordeste 0 -- -- 90
2018-11-28 14:00:00 12.5 0 Calma 5 Noroeste 0 -- -- 59
2018-11-28 13:00:00 10.8 2 Oeste 5 Sudoeste 0 -- -- 61
2018-11-28 12:00:00 8.8 3 Oeste 6 Oeste 0 -- -- 71
2018-11-28 11:00:00 6.5 2 Nordeste 9 Sudoeste 0 -- -- 72
2018-11-28 10:00:00 3.8 0 Calma 5 Nordeste 0 -- -- 85
2018-11-28 09:00:00 0.4 3 Nordeste 12 Nordeste 0 -- -- 94
2018-11-28 08:00:00 -0.5 2 Oeste 5 Sur 0 -- -- 95
2018-11-28 07:00:00 0.4 5 Sur 12 Este 0 -- -- 93
2018-11-28 06:00:00 0.7 8 Este 14 Este 0 -- -- 96
2018-11-28 05:00:00 0.4 7 Nordeste 12 Nordeste 0 -- -- 96
2018-11-28 04:00:00 0.5 3 Este 6 Nordeste 0 -- -- 95
2018-11-28 03:00:00 1.1 4 Este 9 Este 0 -- -- 95
2018-11-28 02:00:00 1.5 4 Este 10 Este 0 -- -- 92
2018-11-28 01:00:00 1.9 5 Sudeste 12 Este 0 -- -- 92
2018-11-28 00:00:00 2 5 Este 10 Este 0 -- -- 92
2018-11-27 23:00:00 2.8 6 Este 13 Este 0 -- -- 88
2018-11-27 22:00:00 3.1 2 Este 9 Este 0 -- -- 90
2018-11-27 21:00:00 3.6 5 Nordeste 12 Nordeste 0 -- -- 92
2018-11-27 20:00:00 4.3 5 Este 15 Nordeste 0 -- -- 90
2018-11-27 19:00:00 5.6 6 Este 12 Nordeste 0 -- -- 85
2018-11-27 18:00:00 7.5 2 Este 7 Sur 0 -- -- 80
2018-11-27 17:00:00 11.8 3 Sudoeste 6 Oeste 0 -- -- 64
2018-11-27 16:00:00 12.3 5 Oeste 9 Sudoeste 0 -- -- 58
2018-11-27 15:00:00 11.9 7 Oeste 18 Sudoeste 0 -- -- 54
2018-11-27 14:00:00 11.7 7 Sudoeste 14 Oeste 0 -- -- 57
2018-11-27 13:00:00 10.3 3 Norte 7 Nordeste 0 -- -- 56
2018-11-27 12:00:00 8.6 2 Este 8 Este 0 -- -- 61
2018-11-27 11:00:00 5.8 3 Sudoeste 12 Nordeste 0 -- -- 67
2018-11-27 10:00:00 2.1 7 Nordeste 10 Nordeste 0 -- -- 81
2018-11-27 09:00:00 -1.2 3 Este 9 Sur 0 -- -- 93
2018-11-27 08:00:00 -1.1 6 Este 12 Nordeste 0 -- -- 93
2018-11-27 07:00:00 -1.3 5 Este 13 Este 0 -- -- 94
2018-11-27 06:00:00 -1 6 Sur 14 Nordeste 0 -- -- 92
2018-11-27 05:00:00 -0.6 5 Este 10 Este 0 -- -- 90
2018-11-27 04:00:00 -0.4 5 Este 11 Nordeste 0 -- -- 92
2018-11-27 03:00:00 0.1 6 Este 13 Nordeste 0 -- -- 90
2018-11-27 02:00:00 0.6 4 Sudeste 12 Sur 0 -- -- 90
2018-11-27 01:00:00 0.5 5 Sudeste 12 Este 0 -- -- 93
2018-11-27 00:00:00 1.4 3 Norte 10 Este 0 -- -- 88
2018-11-26 23:00:00 2.1 7 Sudeste 14 Nordeste 0 -- -- 88
2018-11-26 22:00:00 3.4 4 Este 11 Sudeste 0 -- -- 84
2018-11-26 21:00:00 5.7 9 Sudeste 23 Sudoeste 0 -- -- 71
2018-11-26 20:00:00 6.9 17 Sudoeste 26 Sudoeste 0 -- -- 68
2018-11-26 19:00:00 7.8 13 Sudoeste 26 Sudoeste 0 -- -- 66
2018-11-26 18:00:00 8.7 13 Sudoeste 23 Sudoeste 0 -- -- 67
2018-11-26 17:00:00 10.3 7 Oeste 25 Oeste 0 -- -- 63
2018-11-26 16:00:00 11.5 18 Oeste 27 Sudoeste 0 -- -- 62
2018-11-26 15:00:00 11.3 18 Sudoeste 28 Sudoeste 0 -- -- 60
2018-11-26 14:00:00 10.6 11 Sur 22 Sudoeste 0 -- -- 66
2018-11-26 13:00:00 8.4 12 Sudoeste 19 Oeste 0 -- -- 77
2018-11-26 12:00:00 7.5 10 Sudoeste 18 Sudoeste 0 -- -- 80
2018-11-26 11:00:00 6.6 7 Sudoeste 13 Sudoeste 0 -- -- 87
2018-11-26 10:00:00 4.9 4 Sudoeste 12 Oeste 0 -- -- 97
2018-11-26 09:00:00 4.3 5 Sur 8 Sur 0 -- -- 97
2018-11-26 08:00:00 3.9 2 Sudoeste 10 Sur 0.6 -- -- 98
2018-11-26 07:00:00 3.8 5 Oeste 18 Sur 0.8 -- -- 97
2018-11-26 06:00:00 3.5 7 Noroeste 10 Noroeste 0 -- -- 98
2018-11-26 05:00:00 3.3 4 Nordeste 6 Norte 0 -- -- 98
2018-11-26 04:00:00 3.2 0 Calma 8 Sudeste 0 -- -- 97
2018-11-26 03:00:00 2.9 6 Sudeste 9 Sudeste 0 -- -- 98
2018-11-26 02:00:00 3.2 2 Noroeste 9 Sur 0 -- -- 96
2018-11-26 01:00:00 2.6 5 Este 9 Este 0 -- -- 98
2018-11-26 00:00:00 2.1 5 Nordeste 9 Este 0 -- -- 98
2018-11-25 23:00:00 2.2 3 Sudeste 7 Nordeste 0 -- -- 98
2018-11-25 22:00:00 2.4 3 Este 9 Este 0 -- -- 96
2018-11-25 21:00:00 3.1 4 Nordeste 11 Este 0 -- -- 95
2018-11-25 20:00:00 4 4 Nordeste 9 Nordeste 0 -- -- 94
2018-11-25 19:00:00 5.1 0 Calma 5 Noroeste 0 -- -- 89
2018-11-25 18:00:00 7.1 5 Oeste 10 Sudoeste 0 -- -- 81
2018-11-25 17:00:00 9.4 8 Sudoeste 15 Sudoeste 0 -- -- 76
2018-11-25 16:00:00 9.7 7 Sudoeste 16 Sudoeste 0 -- -- 79
2018-11-25 15:00:00 8.9 13 Sudoeste 22 Sudoeste 0 -- -- 82
2018-11-25 14:00:00 9.3 11 Sudoeste 18 Oeste 0 -- -- 85
2018-11-25 13:00:00 7.6 8 Sudoeste 12 Sur 0 -- -- 87
2018-11-25 12:00:00 6 3 Noroeste 12 Sur 0 -- -- 97
2018-11-25 11:00:00 4.1 9 Sur 15 Sudoeste 0.2 -- -- 100
2018-11-25 10:00:00 3.8 0 Calma 6 Norte 0 -- -- 100
2018-11-25 09:00:00 3.2 3 Noroeste 8 Sudoeste 0.2 -- -- 100
2018-11-25 08:00:00 3 5 Sudoeste 12 Sudoeste 0.4 -- -- 100
2018-11-25 07:00:00 2.2 5 Sudeste 8 Sudeste 0 -- -- 100
2018-11-25 06:00:00 1.5 3 Nordeste 7 Nordeste 0 -- -- 100
2018-11-25 05:00:00 1.5 4 Sudeste 9 Sudoeste 0 -- -- 100
2018-11-25 04:00:00 1.2 4 Sudeste 9 Nordeste 0 -- -- 100
2018-11-25 03:00:00 1 6 Este 9 Este 0 -- -- 100
2018-11-25 02:00:00 1 0 Calma 9 Este 0 -- -- 99
2018-11-25 01:00:00 1.2 0 Calma 7 Nordeste 0 -- -- 98
2018-11-25 00:00:00 1.7 3 Este 8 Nordeste 0 -- -- 97
2018-11-24 23:00:00 2.4 3 Nordeste 11 Nordeste 0 -- -- 97
2018-11-24 22:00:00 2.9 4 Sudeste 12 Nordeste 0 -- -- 97
2018-11-24 21:00:00 3.6 5 Este 12 Este 0 -- -- 95
2018-11-24 20:00:00 4.4 4 Nordeste 7 Norte 0 -- -- 93
2018-11-24 19:00:00 5.5 3 Este 6 Este 0 -- -- 90
2018-11-24 18:00:00 6.9 5 Sur 9 Sur 0 -- -- 86
2018-11-24 17:00:00 9.2 4 Sudoeste 9 Sudoeste 0 -- -- 77
2018-11-24 16:00:00 9.7 6 Sudoeste 17 Sudoeste 0 -- -- 74
2018-11-24 15:00:00 10.1 10 Sudoeste 17 Sudoeste 0 -- -- 66
2018-11-24 14:00:00 9.6 6 Oeste 13 Oeste 0 -- -- 76
2018-11-24 13:00:00 7.7 10 Oeste 14 Sudoeste 0 -- -- 86
2018-11-24 12:00:00 6.6 10 Oeste 12 Oeste 0 -- -- 91
2018-11-24 11:00:00 4.5 0 Calma 6 Noroeste 0 -- -- 100
2018-11-24 10:00:00 2.6 2 Oeste 6 Oeste 0 -- -- 100
2018-11-24 09:00:00 0.7 3 Sudeste 6 Este 0 -- -- 100
2018-11-24 08:00:00 0.1 0 Calma 6 Norte 0 -- -- 100
2018-11-24 07:00:00 0.9 0 Calma 4 Oeste 0 -- -- 100
2018-11-24 06:00:00 1.3 2 Nordeste 9 Nordeste 0 -- -- 100
2018-11-24 05:00:00 2.2 5 Nordeste 10 Este 0 -- -- 100
2018-11-24 04:00:00 3 2 Este 7 Este 0 -- -- 100
2018-11-24 03:00:00 3.4 5 Nordeste 9 Nordeste 0 -- -- 100
2018-11-24 02:00:00 4.1 5 Nordeste 8 Nordeste 0 -- -- 100
2018-11-24 01:00:00 4.5 2 Este 5 Este 0 -- -- 100
2018-11-24 00:00:00 4.3 4 Sur 6 Sur 0 -- -- 100
2018-11-23 23:00:00 4.8 3 Sur 8 Oeste 0 -- -- 100
2018-11-23 22:00:00 5.2 6 Sudoeste 10 Oeste 0 -- -- 99
2018-11-23 21:00:00 5.1 0 Calma 8 Sudoeste 0 -- -- 98
2018-11-23 20:00:00 5.9 5 Sudoeste 12 Sur 0 -- -- 96
2018-11-23 19:00:00 6.8 5 Sudoeste 16 Sudoeste 0 -- -- 98
2018-11-23 18:00:00 7.3 8 Sudoeste 13 Sudoeste 0 -- -- 98
2018-11-23 17:00:00 7.7 8 Sudoeste 12 Sudoeste 0 -- -- 97
2018-11-23 16:00:00 7.8 9 Sudoeste 13 Sudoeste 0 -- -- 96
2018-11-23 15:00:00 7.9 5 Oeste 8 Oeste 0 -- -- 95
2018-11-23 14:00:00 7.3 0 Calma 6 Oeste 0.4 -- -- 98
2018-11-23 13:00:00 7.1 2 Oeste 8 Oeste 0.6 -- -- 98
2018-11-23 12:00:00 7.2 3 Este 11 Este 0.4 -- -- 97
2018-11-23 11:00:00 6.8 5 Este 12 Este 1 -- -- 97
2018-11-23 10:00:00 6 2 Nordeste 7 Nordeste 1 -- -- 98
2018-11-23 09:00:00 5.5 2 Nordeste 8 Nordeste 0.6 -- -- 96
2018-11-23 08:00:00 5.1 3 Nordeste 6 Nordeste 0 -- -- 94
2018-11-23 07:00:00 5.5 3 Este 9 Nordeste 0 -- -- 89
2018-11-23 06:00:00 5.4 2 Norte 10 Nordeste 0 -- -- 89
2018-11-23 05:00:00 5.3 6 Nordeste 16 Nordeste 0 -- -- 90
2018-11-23 04:00:00 4.8 4 Este 8 Nordeste 0 -- -- 93
2018-11-23 03:00:00 4.9 3 Este 10 Nordeste 0 -- -- 92
2018-11-23 02:00:00 4.9 4 Nordeste 8 Nordeste 0 -- -- 92
2018-11-23 01:00:00 4.7 6 Nordeste 9 Este 0 -- -- 93
2018-11-23 00:00:00 5 3 Sur 6 Sudeste 0 -- -- 93
2018-11-22 23:00:00 5.4 3 Sudeste 9 Este 0 -- -- 90
2018-11-22 22:00:00 5.2 7 Este 9 Nordeste 0 -- -- 92
2018-11-22 21:00:00 5.6 6 Sudeste 8 Este 0 -- -- 92
2018-11-22 20:00:00 6.5 6 Este 10 Nordeste 0 -- -- 88
2018-11-22 19:00:00 6.7 6 Nordeste 8 Nordeste 0 -- -- 86
2018-11-22 18:00:00 8.2 3 Sudoeste 7 Sur 0 -- -- 80
2018-11-22 17:00:00 10.1 3 Sur 8 Oeste 0 -- -- 80
2018-11-22 16:00:00 11 5 Oeste 10 Sudoeste 0 -- -- 75
2018-11-22 15:00:00 10.9 8 Oeste 11 Sudoeste 0 -- -- 74
2018-11-22 14:00:00 10.5 4 Oeste 11 Oeste 0 -- -- 80
2018-11-22 13:00:00 9.6 5 Oeste 8 Oeste 0 -- -- 86
2018-11-22 12:00:00 8.3 2 Nordeste 5 Oeste 0 -- -- 87
2018-11-22 11:00:00 6.3 0 Calma 6 Sudeste 0 -- -- 98
2018-11-22 10:00:00 4.8 0 Calma 6 Sudeste 0 -- -- 100
2018-11-22 09:00:00 3.7 6 Sudeste 7 Sudeste 0 -- -- 100
2018-11-22 08:00:00 2.5 0 Calma 6 Nordeste 0 -- -- 100
2018-11-22 07:00:00 3.2 0 Calma 9 Sudeste 0 -- -- 100
2018-11-22 06:00:00 2.9 4 Este 6 Este 0 -- -- 100
2018-11-22 05:00:00 2.5 0 Calma 6 Nordeste 0 -- -- 99
2018-11-22 04:00:00 2.9 0 Calma 6 Este 0 -- -- 99
2018-11-22 03:00:00 3 0 Calma 3 Este 0 -- -- 99
2018-11-22 02:00:00 3.7 0 Calma 5 Sur 0 -- -- 97
2018-11-22 01:00:00 4.8 3 Sur 6 Sur 0 -- -- 97
2018-11-22 00:00:00 5.9 4 Sudeste 6 Sudeste 0 -- -- 96
2018-11-21 23:00:00 6.6 2 Oeste 7 Este 0 -- -- 95
2018-11-21 22:00:00 6 0 Calma 8 Este 0 -- -- 97
2018-11-21 21:00:00 6.1 4 Sudeste 9 Este 0 -- -- 96
2018-11-21 20:00:00 7.1 3 Norte 9 Sur 0 -- -- 92
2018-11-21 19:00:00 7.6 5 Sur 7 Sur 0 -- -- 90
2018-11-21 18:00:00 9.6 2 Sur 7 Sudoeste 0 -- -- 85
2018-11-21 17:00:00 10.2 4 Sudoeste 15 Oeste 0 -- -- 82
2018-11-21 16:00:00 10.9 11 Oeste 15 Oeste 0 -- -- 79
2018-11-21 15:00:00 11.2 8 Oeste 13 Oeste 0 -- -- 75
2018-11-21 14:00:00 11.4 3 Noroeste 9 Oeste 0 -- -- 80
2018-11-21 13:00:00 9.1 6 Oeste 10 Oeste 0 -- -- 93
2018-11-21 12:00:00 8.4 3 Oeste 5 Norte 0 -- -- 92
2018-11-21 11:00:00 7.4 0 Calma 6 Sur 0 -- -- 96
2018-11-21 10:00:00 6.6 0 Calma 8 Nordeste 0 -- -- 100
2018-11-21 09:00:00 5.3 4 Nordeste 8 Nordeste 0 -- -- 100
2018-11-21 08:00:00 4.8 0 Calma 4 Norte 0 -- -- 100
2018-11-21 07:00:00 5.1 0 Calma 6 Sudeste 0 -- -- 100
2018-11-21 06:00:00 5 3 Sudoeste 4 Sudoeste 0 -- -- 100
2018-11-21 05:00:00 4.9 3 Nordeste 4 Nordeste 0 -- -- 100
2018-11-21 04:00:00 5.1 3 Sudoeste 5 Este 0 -- -- 100
2018-11-21 03:00:00 5 3 Nordeste 4 Este 0 -- -- 100
2018-11-21 02:00:00 5 2 Nordeste 5 Este 0 -- -- 100
2018-11-21 01:00:00 5.1 2 Nordeste 3 Nordeste 0 -- -- 100
2018-11-21 00:00:00 5.4 3 Oeste 6 Oeste 0 -- -- 100
2018-11-20 23:00:00 5.3 3 Sudeste 10 Oeste 0 -- -- 100
2018-11-20 22:00:00 5.1 4 Nordeste 9 Este 0.2 -- -- 99
2018-11-20 21:00:00 5.4 0 Calma 7 Sur 0 -- -- 99
2018-11-20 20:00:00 5.1 3 Sur 8 Nordeste 0 -- -- 98
2018-11-20 19:00:00 5.3 3 Nordeste 12 Este 0 -- -- 96
2018-11-20 18:00:00 6 3 Sudeste 12 Oeste 1.4 -- -- 97
2018-11-20 17:00:00 6.2 4 Sudeste 25 Oeste 1.4 -- -- 95
2018-11-20 16:00:00 6.6 9 Nordeste 17 Nordeste 0 -- -- 93
2018-11-20 15:00:00 6.7 9 Nordeste 15 Nordeste 1.4 -- -- 93
2018-11-20 14:00:00 6.5 3 Este 5 Sudeste 3 -- -- 95
2018-11-20 13:00:00 6.7 4 Nordeste 8 Norte 1 -- -- 95
2018-11-20 12:00:00 6.7 0 Calma 15 Este 0.8 -- -- 96
2018-11-20 11:00:00 6.3 9 Este 14 Nordeste 0.4 -- -- 96
2018-11-20 10:00:00 5.9 8 Nordeste 13 Nordeste 0.2 -- -- 100
2018-11-20 09:00:00 5.1 5 Nordeste 9 Este 0 -- -- 100
2018-11-20 08:00:00 4.9 3 Sudeste 6 Este 0.4 -- -- 100
2018-11-20 07:00:00 4.7 2 Norte 7 Nordeste 0.2 -- -- 100
2018-11-20 06:00:00 4.4 5 Sudeste 7 Sudeste 0 -- -- 100
2018-11-20 05:00:00 4.4 2 Sur 8 Sudeste 0 -- -- 100
2018-11-20 04:00:00 4 0 Calma 6 Noroeste 0 -- -- 100
2018-11-20 03:00:00 3.7 3 Sudeste 6 Este 0 -- -- 99
2018-11-20 02:00:00 4.1 3 Sur 5 Sudeste 0 -- -- 99
2018-11-20 01:00:00 4.8 2 Sur 6 Sur 0 -- -- 98
2018-11-20 00:00:00 5.6 4 Sur 6 Sudeste 0 -- -- 98
2018-11-19 23:00:00 5 2 Nordeste 10 Este 0 -- -- 96
2018-11-19 22:00:00 5.7 7 Sudeste 12 Este 0 -- -- 96
2018-11-19 21:00:00 5.4 6 Sudeste 10 Este 0.2 -- -- 96
2018-11-19 20:00:00 5.5 3 Este 16 Este 5.4 -- -- 92
2018-11-19 19:00:00 7.6 12 Nordeste 22 Nordeste 3 -- -- 80
2018-11-19 18:00:00 9.7 4 Noroeste 14 Sudoeste 0 -- -- 83
2018-11-19 17:00:00 10.3 5 Sudoeste 23 Sudoeste 0 -- -- 79
2018-11-19 16:00:00 11.8 13 Sudoeste 23 Sudoeste 0 -- -- 71
2018-11-19 15:00:00 12.1 13 Sudoeste 26 Sudoeste 0 -- -- 70
2018-11-19 14:00:00 12.3 14 Sudoeste 24 Sudoeste 0 -- -- 73
2018-11-19 13:00:00 11.8 11 Sudoeste 18 Sudoeste 0 -- -- 73
2018-11-19 12:00:00 10.1 6 Oeste 9 Oeste 0 -- -- 84
2018-11-19 11:00:00 8.6 2 Oeste 5 Oeste 0 -- -- 83
2018-11-19 10:00:00 6.2 0 Calma 4 Sudeste 0 -- -- 98
2018-11-19 09:00:00 5 0 Calma 6 Norte 0 -- -- 98
2018-11-19 08:00:00 5 0 Calma 6 Nordeste 0 -- -- 98
2018-11-19 07:00:00 5.1 2 Este 6 Este 0 -- -- 97
2018-11-19 06:00:00 5.4 4 Este 7 Este 0 -- -- 97
2018-11-19 05:00:00 5.6 3 Este 8 Nordeste 0 -- -- 97
2018-11-19 04:00:00 5.4 2 Nordeste 5 Sur 0 -- -- 97
2018-11-19 03:00:00 5.9 0 Calma 9 Este 0 -- -- 96
2018-11-19 02:00:00 6.3 2 Norte 9 Este 0 -- -- 95
2018-11-19 01:00:00 6.5 0 Calma 8 Este 0 -- -- 94
2018-11-19 00:00:00 6.9 2 Nordeste 11 Nordeste 0 -- -- 93
2018-11-18 23:00:00 6.6 3 Este 6 Nordeste 0 -- -- 96
2018-11-18 22:00:00 6.9 0 Calma 6 Nordeste 0 -- -- 94
2018-11-18 21:00:00 7.8 3 Norte 14 Este 0 -- -- 89
2018-11-18 20:00:00 8.2 9 Este 12 Este 0 -- -- 87
2018-11-18 19:00:00 8.6 5 Este 11 Este 0 -- -- 87
2018-11-18 18:00:00 8.7 4 Nordeste 8 Nordeste 0 -- -- 91
2018-11-18 17:00:00 9.2 6 Nordeste 11 Este 0 -- -- 89
2018-11-18 16:00:00 9.4 0 Calma 9 Sudoeste 0.4 -- -- 93
2018-11-18 15:00:00 9 7 Oeste 10 Sudoeste 0.6 -- -- 94
2018-11-18 14:00:00 9.2 5 Sudoeste 6 Sudoeste 0.2 -- -- 92
2018-11-18 13:00:00 9.1 4 Oeste 7 Oeste 0.2 -- -- 90
2018-11-18 12:00:00 9 3 Norte 9 Norte 0 -- -- 88
2018-11-18 11:00:00 8.3 8 Nordeste 16 Nordeste 0 -- -- 93
2018-11-18 10:00:00 7.5 6 Nordeste 17 Este 0.4 -- -- 94
2018-11-18 09:00:00 7 7 Nordeste 11 Nordeste 0.4 -- -- 97
2018-11-18 08:00:00 7.1 6 Nordeste 12 Nordeste 1.2 -- -- 98
2018-11-18 07:00:00 7.5 3 Nordeste 6 Nordeste 1.8 -- -- 98
2018-11-18 06:00:00 7.6 3 Norte 9 Este 1.8 -- -- 97
2018-11-18 05:00:00 7.8 5 Nordeste 13 Nordeste 1 -- -- 94
2018-11-18 04:00:00 8.1 9 Nordeste 17 Nordeste 0 -- -- 93
2018-11-18 03:00:00 8 12 Nordeste 18 Nordeste 0.4 -- -- 96
2018-11-18 02:00:00 8.3 11 Nordeste 17 Nordeste 0.2 -- -- 94
2018-11-18 01:00:00 8.5 8 Nordeste 19 Este 0.2 -- -- 92
2018-11-18 00:00:00 9 8 Nordeste 17 Nordeste 1 -- -- 95
2018-11-17 23:00:00 9.8 4 Nordeste 18 Sudeste 1 -- -- 93
2018-11-17 22:00:00 10.3 6 Este 18 Este 0 -- -- 87
2018-11-17 21:00:00 10.6 5 Sur 10 Sur 0 -- -- 84
2018-11-17 20:00:00 10.7 0 Calma 8 Sudoeste 0 -- -- 87
2018-11-17 19:00:00 11.1 3 Sudoeste 12 Sudeste 0 -- -- 85
2018-11-17 18:00:00 11.3 3 Nordeste 9 Este 0 -- -- 83
2018-11-17 17:00:00 11.9 4 Este 13 Oeste 0 -- -- 79
2018-11-17 16:00:00 12.4 7 Sudoeste 14 Sudoeste 0 -- -- 80
2018-11-17 15:00:00 13 6 Sur 15 Sur 0 -- -- 77
2018-11-17 14:00:00 13 12 Sur 19 Sur 0 -- -- 78
2018-11-17 13:00:00 13.3 7 Sudoeste 14 Oeste 0 -- -- 78
2018-11-17 12:00:00 12.7 9 Oeste 13 Oeste 0 -- -- 85
2018-11-17 11:00:00 12 6 Oeste 8 Oeste 0 -- -- 94
2018-11-17 10:00:00 11 4 Sudoeste 5 Sudoeste 0 -- -- 97
2018-11-17 09:00:00 10.2 2 Noroeste 4 Oeste 0 -- -- 98
2018-11-17 08:00:00 9.9 0 Calma 2 Nordeste 0 -- -- 98
2018-11-17 07:00:00 10.1 0 Calma 3 Sudoeste 0 -- -- 98
2018-11-17 06:00:00 10 0 Calma 3 Norte 0 -- -- 98
2018-11-17 05:00:00 10.3 0 Calma 4 Noroeste 0 -- -- 97
2018-11-17 04:00:00 10.1 0 Calma 4 Este 0 -- -- 97
2018-11-17 03:00:00 10 0 Calma -- -- 0 -- -- 97
2018-11-17 02:00:00 9.8 0 Calma 3 Este 0 -- -- 97
2018-11-17 01:00:00 9.9 0 Calma 4 Nordeste 0 -- -- 96
2018-11-17 00:00:00 10 0 Calma 5 Este 0 -- -- 95
2018-11-16 23:00:00 10.1 3 Sudeste 5 Sudeste 0 -- -- 95
2018-11-16 22:00:00 9.4 0 Calma 6 Nordeste 0 -- -- 96
2018-11-16 21:00:00 9.1 3 Este 7 Nordeste 0 -- -- 94
2018-11-16 20:00:00 9.5 3 Este 6 Sur 0 -- -- 93
2018-11-16 19:00:00 10.8 3 Sur 9 Sur 0 -- -- 89
2018-11-16 18:00:00 12.7 0 Calma 8 Sur 0 -- -- 84
2018-11-16 17:00:00 15.8 5 Sur 13 Sur 0 -- -- 72
2018-11-16 16:00:00 16.6 10 Sur 17 Sudoeste 0 -- -- 67
2018-11-16 15:00:00 16 3 Sudoeste 8 Sudoeste 0 -- -- 67
2018-11-16 14:00:00 16.2 4 Sudoeste 12 Sudoeste 0 -- -- 65
2018-11-16 13:00:00 15.6 6 Oeste 12 Oeste 0 -- -- 67
2018-11-16 12:00:00 14.2 6 Oeste 10 Sudoeste 0 -- -- 76
2018-11-16 11:00:00 12.5 5 Noroeste 9 Oeste 0 -- -- 81
2018-11-16 10:00:00 10.6 0 Calma 8 Este 0 -- -- 84
2018-11-16 09:00:00 7 3 Nordeste 9 Nordeste 0 -- -- 98
2018-11-16 08:00:00 5.9 3 Este 9 Nordeste 0 -- -- 97
2018-11-16 07:00:00 6.6 5 Este 9 Este 0 -- -- 97
2018-11-16 06:00:00 6.9 0 Calma 7 Sur 0 -- -- 96
2018-11-16 05:00:00 8.2 0 Calma 7 Nordeste 0 -- -- 95
2018-11-16 04:00:00 8.7 2 Este 9 Este 0 -- -- 94
2018-11-16 03:00:00 8.6 4 Este 6 Este 0 -- -- 96
2018-11-16 02:00:00 8.6 0 Calma 9 Este 0 -- -- 94
2018-11-16 01:00:00 8.5 5 Sudeste 7 Sudeste 0 -- -- 96
2018-11-16 00:00:00 8.3 2 Nordeste 8 Este 0 -- -- 95
2018-11-15 23:00:00 8.4 2 Nordeste 6 Este 0 -- -- 94
2018-11-15 22:00:00 9.4 5 Este 9 Este 0 -- -- 93
2018-11-15 21:00:00 10.6 3 Nordeste 5 Este 0 -- -- 90
2018-11-15 20:00:00 11 6 Nordeste 11 Norte 0 -- -- 88
2018-11-15 19:00:00 11.4 5 Norte 11 Este 0 -- -- 88
2018-11-15 18:00:00 12.3 6 Este 14 Este 0 -- -- 82
2018-11-15 17:00:00 13.5 8 Este 17 Este 0 -- -- 78
2018-11-15 16:00:00 13.9 9 Este 22 Este 0 -- -- 76
2018-11-15 15:00:00 13.6 10 Este 21 Este 0 -- -- 78
2018-11-15 14:00:00 14.5 7 Este 18 Este 0 -- -- 71
2018-11-15 13:00:00 13.9 12 Nordeste 19 Nordeste 0 -- -- 73
2018-11-15 12:00:00 13 3 Nordeste 8 Nordeste 0 -- -- 84
2018-11-15 11:00:00 11.1 0 Calma 3 Oeste 0 -- -- 93
2018-11-15 10:00:00 10.2 0 Calma 3 Oeste 0 -- -- 94
2018-11-15 09:00:00 9.6 0 Calma 9 Este 0 -- -- 94
2018-11-15 08:00:00 8.8 0 Calma 5 Nordeste 0 -- -- 95
2018-11-15 07:00:00 9.1 2 Sudeste 6 Nordeste 0 -- -- 94
2018-11-15 06:00:00 9 4 Nordeste 9 Nordeste 0 -- -- 92
2018-11-15 05:00:00 9 0 Calma 7 Este 0 -- -- 93
2018-11-15 04:00:00 8.7 4 Sudeste 9 Nordeste 0 -- -- 92
2018-11-15 03:00:00 8.6 5 Nordeste 9 Este 0 -- -- 94
2018-11-15 02:00:00 8.4 6 Sudeste 9 Este 0 -- -- 96
2018-11-15 01:00:00 8.5 4 Este 7 Nordeste 0 -- -- 94
2018-11-15 00:00:00 8.7 4 Sudeste 6 Sudeste 0 -- -- 96
2018-11-14 23:00:00 8.7 3 Nordeste 12 Este 0 -- -- 95
2018-11-14 22:00:00 9.1 8 Este 10 Nordeste 0 -- -- 95
2018-11-14 21:00:00 10 4 Nordeste 9 Nordeste 0 -- -- 93
2018-11-14 20:00:00 10.3 2 Nordeste 5 Este 0 -- -- 91
2018-11-14 19:00:00 11.7 0 Calma 7 Este 0 -- -- 87
2018-11-14 18:00:00 13.9 3 Este 10 Sudeste 0 -- -- 80
2018-11-14 17:00:00 15.7 3 Noroeste 18 Sudeste 0 -- -- 73
2018-11-14 16:00:00 17.7 4 Sur 10 Sudeste 0 -- -- 62
2018-11-14 15:00:00 17 8 Sudeste 13 Sudeste 0 -- -- 65
2018-11-14 14:00:00 16.8 9 Sudoeste 12 Oeste 0 -- -- 67
2018-11-14 13:00:00 16 7 Oeste 10 Sudoeste 0 -- -- 72
2018-11-14 12:00:00 14 6 Oeste 9 Sudoeste 0 -- -- 79
2018-11-14 11:00:00 11.8 3 Sudoeste 6 Oeste 0 -- -- 88
2018-11-14 10:00:00 10.7 0 Calma 3 Sudeste 0 -- -- 90
2018-11-14 09:00:00 9.3 0 Calma 5 Este 0 -- -- 92
2018-11-14 08:00:00 8.8 3 Este 6 Nordeste 0 -- -- 94
2018-11-14 07:00:00 8.2 0 Calma 6 Nordeste 0 -- -- 95
2018-11-14 06:00:00 7.9 0 Calma 4 Este 0 -- -- 95
2018-11-14 05:00:00 8.2 0 Calma 10 Nordeste 0 -- -- 93
2018-11-14 04:00:00 8.3 4 Este 7 Este 0 -- -- 95
2018-11-14 03:00:00 8.5 0 Calma 8 Nordeste 0 -- -- 93
2018-11-14 02:00:00 9.3 3 Este 6 Sudeste 0 -- -- 92
2018-11-14 01:00:00 9.5 3 Nordeste 6 Sudeste 0 -- -- 93
2018-11-14 00:00:00 10 4 Sudeste 8 Sudeste 0 -- -- 91